VIR94 EGLL-EGPF
Flight info
| Callsign | VIR94 |
|---|---|
| Flight time | 0h 51m |
| Altitude | 38000 |
| Route | UMLAT T418 WELIN T420 TNT UN57 POL UN601 RIBEL DCT ASLIB |
| Aircraft | A339/H-SADE1E2E3GHIJ3J5M1P2RWXY/LB2D1 |
Departure
| Time | 2026-05-07 00:02 |
|---|---|
| Airport | London Heathrow Airport (EGLL) |
Arrival
| Time | 2026-05-07 00:54 |
|---|---|
| Airport | Glasgow Airport (EGPF) |
| Time | Latitude | Longitude | Altitude | Speed | Heading |
|---|---|---|---|---|---|
| 2026-05-06 23:27 | 51.47079 | -0.46589 | 92 ft | 0 kts | 58° |
| 2026-05-06 23:47 | 51.47078 | -0.46591 | 89 ft | 2 kts | 58° |
| 2026-05-06 23:47 | 51.47065 | -0.46625 | 89 ft | 4 kts | 58° |
| 2026-05-06 23:47 | 51.47052 | -0.46658 | 88 ft | 4 kts | 62° |
| 2026-05-06 23:48 | 51.47043 | -0.46691 | 90 ft | 4 kts | 96° |
| 2026-05-06 23:48 | 51.47049 | -0.46722 | 89 ft | 4 kts | 137° |
| 2026-05-06 23:48 | 51.47070 | -0.46748 | 89 ft | 3 kts | 146° |
| 2026-05-06 23:48 | 51.47077 | -0.46756 | 88 ft | 0 kts | 145° |
| 2026-05-06 23:53 | 51.47067 | -0.46745 | 89 ft | 5 kts | 145° |
| 2026-05-06 23:54 | 51.47022 | -0.46695 | 93 ft | 11 kts | 145° |
| 2026-05-06 23:54 | 51.46944 | -0.46608 | 91 ft | 16 kts | 145° |
| 2026-05-06 23:54 | 51.46839 | -0.46492 | 90 ft | 20 kts | 145° |
| 2026-05-06 23:54 | 51.46765 | -0.46441 | 93 ft | 3 kts | 203° |
| 2026-05-06 23:55 | 51.46756 | -0.46469 | 92 ft | 4 kts | 250° |
| 2026-05-06 23:55 | 51.46750 | -0.46554 | 93 ft | 12 kts | 268° |
| 2026-05-06 23:55 | 51.46748 | -0.46732 | 92 ft | 20 kts | 269° |
| 2026-05-06 23:55 | 51.46747 | -0.46989 | 93 ft | 26 kts | 270° |
| 2026-05-06 23:56 | 51.46746 | -0.47314 | 93 ft | 32 kts | 270° |
| 2026-05-06 23:56 | 51.46746 | -0.47692 | 93 ft | 35 kts | 269° |
| 2026-05-06 23:56 | 51.46743 | -0.48067 | 91 ft | 33 kts | 269° |
| 2026-05-06 23:56 | 51.46741 | -0.48371 | 89 ft | 24 kts | 270° |
| 2026-05-06 23:57 | 51.46740 | -0.48648 | 89 ft | 25 kts | 264° |
| 2026-05-06 23:57 | 51.46682 | -0.48751 | 93 ft | 9 kts | 189° |
| 2026-05-06 23:57 | 51.46623 | -0.48758 | 92 ft | 8 kts | 186° |
| 2026-05-06 23:57 | 51.46598 | -0.48765 | 92 ft | 0 kts | 193° |
| 2026-05-06 23:58 | 51.46598 | -0.48766 | 92 ft | 1 kts | 193° |
| 2026-05-06 23:59 | 51.46596 | -0.48766 | 92 ft | 0 kts | 193° |
| 2026-05-06 23:59 | 51.46593 | -0.48767 | 92 ft | 0 kts | 193° |
| 2026-05-06 23:59 | 51.46590 | -0.48768 | 92 ft | 2 kts | 192° |
| 2026-05-07 00:00 | 51.46553 | -0.48772 | 92 ft | 9 kts | 181° |
| 2026-05-07 00:00 | 51.46483 | -0.48722 | 93 ft | 12 kts | 128° |
| 2026-05-07 00:00 | 51.46475 | -0.48582 | 92 ft | 16 kts | 87° |
| 2026-05-07 00:00 | 51.46478 | -0.48448 | 89 ft | 21 kts | 88° |
| 2026-05-07 00:01 | 51.46480 | -0.48247 | 91 ft | 0 kts | 89° |
| 2026-05-07 00:01 | 51.46480 | -0.48244 | 91 ft | 4 kts | 89° |
| 2026-05-07 00:02 | 51.46482 | -0.47687 | 92 ft | 98 kts | 89° |
| 2026-05-07 00:02 | 51.46501 | -0.46118 | 212 ft | 173 kts | 88° |
| 2026-05-07 00:02 | 51.46668 | -0.44151 | 1270 ft | 175 kts | 72° |
| 2026-05-07 00:02 | 51.47102 | -0.42393 | 2292 ft | 177 kts | 63° |
| 2026-05-07 00:03 | 51.47752 | -0.40564 | 2856 ft | 202 kts | 56° |
| 2026-05-07 00:03 | 51.48605 | -0.38653 | 3396 ft | 223 kts | 52° |
| 2026-05-07 00:03 | 51.49626 | -0.36636 | 4102 ft | 239 kts | 49° |
| 2026-05-07 00:03 | 51.50663 | -0.34423 | 4830 ft | 254 kts | 56° |
| 2026-05-07 00:04 | 51.51564 | -0.31900 | 5503 ft | 266 kts | 63° |
| 2026-05-07 00:04 | 51.52355 | -0.29208 | 6388 ft | 270 kts | 66° |
| 2026-05-07 00:04 | 51.52826 | -0.27413 | 6927 ft | 272 kts | 68° |
| 2026-05-07 00:04 | 51.53000 | -0.26708 | 7125 ft | 274 kts | 69° |
| 2026-05-07 00:05 | 51.53169 | -0.25990 | 7334 ft | 274 kts | 69° |
| 2026-05-07 00:05 | 51.53750 | -0.23618 | 7993 ft | 278 kts | 64° |
| 2026-05-07 00:05 | 51.54950 | -0.21225 | 8789 ft | 280 kts | 38° |
| 2026-05-07 00:05 | 51.56613 | -0.19557 | 9660 ft | 281 kts | 24° |
| 2026-05-07 00:06 | 51.58439 | -0.18390 | 10389 ft | 288 kts | 18° |
| 2026-05-07 00:06 | 51.60410 | -0.17357 | 10738 ft | 307 kts | 15° |
| 2026-05-07 00:06 | 51.62509 | -0.16411 | 11098 ft | 323 kts | 11° |
| 2026-05-07 00:06 | 51.64820 | -0.16375 | 11390 ft | 341 kts | 348° |
| 2026-05-07 00:07 | 51.67050 | -0.17951 | 11686 ft | 357 kts | 325° |
| 2026-05-07 00:07 | 51.68787 | -0.20768 | 12083 ft | 368 kts | 308° |
| 2026-05-07 00:07 | 51.70343 | -0.24053 | 12809 ft | 370 kts | 307° |
| 2026-05-07 00:07 | 51.71927 | -0.27378 | 13508 ft | 374 kts | 308° |
| 2026-05-07 00:08 | 51.73534 | -0.30588 | 14134 ft | 378 kts | 309° |
| 2026-05-07 00:08 | 51.75253 | -0.33808 | 14779 ft | 381 kts | 311° |
| 2026-05-07 00:08 | 51.77064 | -0.36987 | 15413 ft | 385 kts | 313° |
| 2026-05-07 00:08 | 51.78939 | -0.40104 | 16047 ft | 388 kts | 314° |
| 2026-05-07 00:09 | 51.80841 | -0.43126 | 16672 ft | 392 kts | 315° |
| 2026-05-07 00:09 | 51.82818 | -0.46158 | 17333 ft | 395 kts | 316° |
| 2026-05-07 00:09 | 51.84853 | -0.49199 | 17982 ft | 399 kts | 317° |
| 2026-05-07 00:09 | 51.86929 | -0.52234 | 18551 ft | 403 kts | 317° |
| 2026-05-07 00:10 | 51.89034 | -0.55267 | 19121 ft | 406 kts | 317° |
| 2026-05-07 00:10 | 51.91167 | -0.58307 | 19681 ft | 409 kts | 318° |
| 2026-05-07 00:10 | 51.93323 | -0.61354 | 20218 ft | 413 kts | 318° |
| 2026-05-07 00:10 | 51.95497 | -0.64406 | 20741 ft | 416 kts | 318° |
| 2026-05-07 00:11 | 51.96954 | -0.66444 | 21112 ft | 418 kts | 318° |
| 2026-05-07 00:11 | 51.99175 | -0.69541 | 21606 ft | 421 kts | 319° |
| 2026-05-07 00:11 | 52.01465 | -0.72535 | 22061 ft | 426 kts | 325° |
| 2026-05-07 00:11 | 52.04146 | -0.74635 | 22582 ft | 430 kts | 337° |
| 2026-05-07 00:12 | 52.06978 | -0.76277 | 23117 ft | 433 kts | 340° |
| 2026-05-07 00:12 | 52.09859 | -0.77807 | 23609 ft | 437 kts | 341° |
| 2026-05-07 00:12 | 52.12732 | -0.79268 | 24045 ft | 439 kts | 341° |
| 2026-05-07 00:12 | 52.15665 | -0.80728 | 24470 ft | 442 kts | 342° |
| 2026-05-07 00:13 | 52.18610 | -0.82185 | 24917 ft | 444 kts | 342° |
| 2026-05-07 00:13 | 52.21570 | -0.83694 | 25354 ft | 446 kts | 340° |
| 2026-05-07 00:13 | 52.24411 | -0.85756 | 25761 ft | 448 kts | 333° |
| 2026-05-07 00:13 | 52.27175 | -0.88133 | 26179 ft | 450 kts | 331° |
| 2026-05-07 00:14 | 52.29912 | -0.90644 | 26643 ft | 452 kts | 330° |
| 2026-05-07 00:14 | 52.32642 | -0.93240 | 27066 ft | 454 kts | 329° |
| 2026-05-07 00:14 | 52.35364 | -0.95888 | 27456 ft | 457 kts | 329° |
| 2026-05-07 00:14 | 52.38098 | -0.98584 | 27870 ft | 460 kts | 329° |
| 2026-05-07 00:15 | 52.40839 | -1.01319 | 28224 ft | 463 kts | 329° |
| 2026-05-07 00:15 | 52.43597 | -1.04077 | 28617 ft | 465 kts | 329° |
| 2026-05-07 00:15 | 52.46363 | -1.06846 | 28971 ft | 468 kts | 329° |
| 2026-05-07 00:15 | 52.49147 | -1.09644 | 29379 ft | 469 kts | 329° |
| 2026-05-07 00:16 | 52.51884 | -1.12398 | 29983 ft | 466 kts | 329° |
| 2026-05-07 00:16 | 52.54642 | -1.15174 | 30499 ft | 464 kts | 329° |
| 2026-05-07 00:16 | 52.57328 | -1.17887 | 30983 ft | 462 kts | 329° |
| 2026-05-07 00:16 | 52.60083 | -1.20672 | 31455 ft | 461 kts | 329° |
| 2026-05-07 00:17 | 52.62792 | -1.23412 | 31956 ft | 460 kts | 329° |
| 2026-05-07 00:17 | 52.65505 | -1.26156 | 32468 ft | 459 kts | 329° |
| 2026-05-07 00:17 | 52.68250 | -1.28934 | 32995 ft | 458 kts | 329° |
| 2026-05-07 00:17 | 52.70956 | -1.31688 | 33537 ft | 456 kts | 329° |
| 2026-05-07 00:18 | 52.73659 | -1.34445 | 34154 ft | 455 kts | 329° |
| 2026-05-07 00:18 | 52.76351 | -1.37191 | 34572 ft | 455 kts | 330° |
| 2026-05-07 00:18 | 52.79017 | -1.39922 | 34860 ft | 446 kts | 329° |
| 2026-05-07 00:18 | 52.81656 | -1.42621 | 34982 ft | 449 kts | 329° |
| 2026-05-07 00:19 | 52.87046 | -1.48136 | 35057 ft | 458 kts | 329° |
| 2026-05-07 00:19 | 52.92461 | -1.53699 | 35063 ft | 456 kts | 330° |
| 2026-05-07 00:20 | 52.97800 | -1.59194 | 35209 ft | 457 kts | 330° |
| 2026-05-07 00:20 | 53.00511 | -1.61980 | 35623 ft | 456 kts | 329° |
| 2026-05-07 00:20 | 53.03229 | -1.64646 | 36070 ft | 454 kts | 334° |
| 2026-05-07 00:21 | 53.06090 | -1.66847 | 36470 ft | 454 kts | 337° |
| 2026-05-07 00:21 | 53.09033 | -1.68878 | 36824 ft | 453 kts | 338° |
| 2026-05-07 00:21 | 53.11928 | -1.70793 | 36966 ft | 453 kts | 339° |
| 2026-05-07 00:21 | 53.14895 | -1.72713 | 37035 ft | 456 kts | 339° |
| 2026-05-07 00:22 | 53.20855 | -1.76502 | 37067 ft | 458 kts | 339° |
| 2026-05-07 00:22 | 53.26805 | -1.80248 | 37094 ft | 454 kts | 339° |
| 2026-05-07 00:23 | 53.32672 | -1.83934 | 37078 ft | 452 kts | 339° |
| 2026-05-07 00:23 | 53.38564 | -1.87638 | 37074 ft | 455 kts | 339° |
| 2026-05-07 00:24 | 53.44496 | -1.91372 | 37091 ft | 455 kts | 339° |
| 2026-05-07 00:24 | 53.50410 | -1.95103 | 37079 ft | 453 kts | 339° |
| 2026-05-07 00:25 | 53.56320 | -1.98841 | 37094 ft | 454 kts | 339° |
| 2026-05-07 00:25 | 53.62235 | -2.02591 | 37086 ft | 454 kts | 339° |
| 2026-05-07 00:26 | 53.68162 | -2.06361 | 37085 ft | 454 kts | 339° |
| 2026-05-07 00:26 | 53.74028 | -2.10141 | 37081 ft | 454 kts | 338° |
| 2026-05-07 00:27 | 53.79903 | -2.14062 | 37085 ft | 454 kts | 338° |
| 2026-05-07 00:27 | 53.85767 | -2.18061 | 37076 ft | 454 kts | 338° |
| 2026-05-07 00:28 | 53.91616 | -2.22075 | 37083 ft | 454 kts | 338° |
| 2026-05-07 00:28 | 53.97471 | -2.26107 | 37089 ft | 454 kts | 338° |
| 2026-05-07 00:29 | 54.03158 | -2.30702 | 37081 ft | 451 kts | 332° |
| 2026-05-07 00:30 | 54.14176 | -2.40766 | 37068 ft | 452 kts | 331° |
| 2026-05-07 00:30 | 54.19686 | -2.45924 | 37072 ft | 451 kts | 331° |
| 2026-05-07 00:31 | 54.25177 | -2.51090 | 37083 ft | 449 kts | 331° |
| 2026-05-07 00:31 | 54.27907 | -2.53671 | 36965 ft | 448 kts | 331° |
| 2026-05-07 00:31 | 54.30636 | -2.56256 | 36582 ft | 447 kts | 331° |
| 2026-05-07 00:32 | 54.33356 | -2.58842 | 36043 ft | 448 kts | 331° |
| 2026-05-07 00:32 | 54.36076 | -2.61436 | 35428 ft | 446 kts | 331° |
| 2026-05-07 00:32 | 54.38790 | -2.64030 | 34649 ft | 447 kts | 332° |
| 2026-05-07 00:32 | 54.41504 | -2.66631 | 33840 ft | 446 kts | 332° |
| 2026-05-07 00:33 | 54.44189 | -2.69186 | 32750 ft | 448 kts | 332° |
| 2026-05-07 00:33 | 54.46951 | -2.71797 | 31234 ft | 459 kts | 330° |
| 2026-05-07 00:33 | 54.49734 | -2.74412 | 29722 ft | 468 kts | 330° |
| 2026-05-07 00:33 | 54.52596 | -2.77128 | 28746 ft | 462 kts | 329° |
| 2026-05-07 00:34 | 54.55385 | -2.79800 | 27856 ft | 455 kts | 329° |
| 2026-05-07 00:34 | 54.58137 | -2.82450 | 27480 ft | 449 kts | 329° |
| 2026-05-07 00:34 | 54.60885 | -2.85106 | 27202 ft | 454 kts | 329° |
| 2026-05-07 00:34 | 54.63635 | -2.87769 | 26945 ft | 452 kts | 329° |
| 2026-05-07 00:35 | 54.66337 | -2.90390 | 26685 ft | 448 kts | 329° |
| 2026-05-07 00:35 | 54.69016 | -2.92991 | 26433 ft | 444 kts | 329° |
| 2026-05-07 00:35 | 54.71692 | -2.95596 | 26203 ft | 443 kts | 329° |
| 2026-05-07 00:35 | 54.74388 | -2.98209 | 25983 ft | 441 kts | 328° |
| 2026-05-07 00:36 | 54.77057 | -3.00808 | 25816 ft | 438 kts | 328° |
| 2026-05-07 00:36 | 54.79714 | -3.03455 | 25624 ft | 437 kts | 326° |
| 2026-05-07 00:36 | 54.82242 | -3.06297 | 25404 ft | 438 kts | 324° |
| 2026-05-07 00:36 | 54.84755 | -3.09297 | 25182 ft | 436 kts | 323° |
| 2026-05-07 00:37 | 54.87229 | -3.12329 | 24970 ft | 433 kts | 322° |
| 2026-05-07 00:37 | 54.89660 | -3.15355 | 24748 ft | 431 kts | 322° |
| 2026-05-07 00:37 | 54.92078 | -3.18392 | 24523 ft | 429 kts | 322° |
| 2026-05-07 00:37 | 54.94497 | -3.21450 | 24255 ft | 430 kts | 322° |
| 2026-05-07 00:38 | 54.96921 | -3.24528 | 23983 ft | 428 kts | 321° |
| 2026-05-07 00:38 | 54.99317 | -3.27571 | 23679 ft | 425 kts | 321° |
| 2026-05-07 00:38 | 55.01692 | -3.30599 | 23374 ft | 422 kts | 321° |
| 2026-05-07 00:38 | 55.04038 | -3.33601 | 23047 ft | 420 kts | 321° |
| 2026-05-07 00:39 | 55.06385 | -3.36612 | 22718 ft | 418 kts | 321° |
| 2026-05-07 00:39 | 55.08714 | -3.39607 | 22404 ft | 418 kts | 321° |
| 2026-05-07 00:39 | 55.11035 | -3.42597 | 22066 ft | 417 kts | 321° |
| 2026-05-07 00:39 | 55.13363 | -3.45600 | 21751 ft | 415 kts | 321° |
| 2026-05-07 00:40 | 55.15669 | -3.48579 | 21422 ft | 414 kts | 321° |
| 2026-05-07 00:40 | 55.17983 | -3.51573 | 21118 ft | 408 kts | 321° |
| 2026-05-07 00:40 | 55.20167 | -3.54400 | 20816 ft | 395 kts | 321° |
| 2026-05-07 00:40 | 55.22371 | -3.57251 | 20524 ft | 384 kts | 321° |
| 2026-05-07 00:41 | 55.24525 | -3.60039 | 20225 ft | 375 kts | 320° |
| 2026-05-07 00:41 | 55.26601 | -3.62737 | 19919 ft | 368 kts | 320° |
| 2026-05-07 00:41 | 55.28639 | -3.65392 | 19650 ft | 360 kts | 320° |
| 2026-05-07 00:41 | 55.30632 | -3.67991 | 19389 ft | 354 kts | 320° |
| 2026-05-07 00:42 | 55.32570 | -3.70526 | 19140 ft | 348 kts | 320° |
| 2026-05-07 00:42 | 55.34494 | -3.73044 | 18886 ft | 342 kts | 320° |
| 2026-05-07 00:42 | 55.36385 | -3.75522 | 18644 ft | 336 kts | 320° |
| 2026-05-07 00:42 | 55.38245 | -3.77966 | 18427 ft | 331 kts | 320° |
| 2026-05-07 00:43 | 55.40055 | -3.80345 | 18155 ft | 325 kts | 320° |
| 2026-05-07 00:43 | 55.41843 | -3.82701 | 17860 ft | 319 kts | 320° |
| 2026-05-07 00:43 | 55.43618 | -3.85042 | 17588 ft | 314 kts | 320° |
| 2026-05-07 00:43 | 55.45356 | -3.87338 | 17323 ft | 309 kts | 320° |
| 2026-05-07 00:44 | 55.46862 | -3.89869 | 17047 ft | 299 kts | 303° |
| 2026-05-07 00:44 | 55.47968 | -3.92938 | 16844 ft | 290 kts | 298° |
| 2026-05-07 00:44 | 55.48962 | -3.95937 | 16822 ft | 277 kts | 300° |
| 2026-05-07 00:44 | 55.50248 | -3.98355 | 16679 ft | 272 kts | 318° |
| 2026-05-07 00:45 | 55.51552 | -4.00699 | 16360 ft | 262 kts | 300° |
| 2026-05-07 00:45 | 55.52431 | -4.03502 | 16019 ft | 259 kts | 295° |
| 2026-05-07 00:45 | 55.53247 | -4.06295 | 15659 ft | 258 kts | 295° |
| 2026-05-07 00:45 | 55.54130 | -4.09200 | 14716 ft | 279 kts | 296° |
| 2026-05-07 00:46 | 55.55114 | -4.12307 | 13718 ft | 302 kts | 298° |
| 2026-05-07 00:46 | 55.56204 | -4.15606 | 12638 ft | 321 kts | 299° |
| 2026-05-07 00:46 | 55.57386 | -4.19069 | 11595 ft | 336 kts | 300° |
| 2026-05-07 00:46 | 55.58639 | -4.22664 | 10604 ft | 348 kts | 300° |
| 2026-05-07 00:47 | 55.59921 | -4.26289 | 9753 ft | 355 kts | 300° |
| 2026-05-07 00:47 | 55.61233 | -4.29961 | 9452 ft | 344 kts | 300° |
| 2026-05-07 00:47 | 55.62478 | -4.33420 | 9444 ft | 324 kts | 301° |
| 2026-05-07 00:47 | 55.63655 | -4.36677 | 9434 ft | 306 kts | 300° |
| 2026-05-07 00:48 | 55.64764 | -4.39739 | 9383 ft | 290 kts | 300° |
| 2026-05-07 00:48 | 55.65839 | -4.42705 | 9223 ft | 277 kts | 300° |
| 2026-05-07 00:48 | 55.66866 | -4.45547 | 8806 ft | 275 kts | 300° |
| 2026-05-07 00:48 | 55.67895 | -4.48398 | 8334 ft | 274 kts | 300° |
| 2026-05-07 00:49 | 55.68913 | -4.51216 | 7894 ft | 273 kts | 300° |
| 2026-05-07 00:49 | 55.69942 | -4.54077 | 7431 ft | 273 kts | 300° |
| 2026-05-07 00:49 | 55.70962 | -4.56904 | 7014 ft | 271 kts | 299° |
| 2026-05-07 00:49 | 55.71976 | -4.59728 | 6563 ft | 271 kts | 299° |
| 2026-05-07 00:50 | 55.73002 | -4.62530 | 6083 ft | 270 kts | 300° |
| 2026-05-07 00:50 | 55.74149 | -4.65072 | 5574 ft | 274 kts | 317° |
| 2026-05-07 00:50 | 55.75864 | -4.66555 | 5118 ft | 273 kts | 345° |
| 2026-05-07 00:50 | 55.77737 | -4.66446 | 4584 ft | 269 kts | 15° |
| 2026-05-07 00:51 | 55.79335 | -4.64849 | 4183 ft | 257 kts | 45° |
| 2026-05-07 00:51 | 55.80230 | -4.62349 | 3975 ft | 233 kts | 75° |
| 2026-05-07 00:51 | 55.80531 | -4.59743 | 3756 ft | 204 kts | 82° |
| 2026-05-07 00:51 | 55.80922 | -4.57470 | 3587 ft | 183 kts | 74° |
| 2026-05-07 00:52 | 55.81448 | -4.55482 | 3196 ft | 180 kts | 66° |
| 2026-05-07 00:52 | 55.82119 | -4.53496 | 2352 ft | 197 kts | 61° |
| 2026-05-07 00:52 | 55.82946 | -4.51424 | 1423 ft | 205 kts | 54° |
| 2026-05-07 00:52 | 55.83843 | -4.49606 | 1053 ft | 183 kts | 49° |
| 2026-05-07 00:53 | 55.84699 | -4.48062 | 675 ft | 170 kts | 46° |
| 2026-05-07 00:53 | 55.85482 | -4.46656 | 424 ft | 154 kts | 50° |
| 2026-05-07 00:53 | 55.85956 | -4.45673 | 183 ft | 153 kts | 51° |
| 2026-05-07 00:53 | 55.86843 | -4.43987 | 32 ft | 122 kts | 47° |
| 2026-05-07 00:54 | 55.87300 | -4.43125 | 31 ft | 74 kts | 47° |
| 2026-05-07 00:54 | 55.87558 | -4.42644 | 35 ft | 48 kts | 46° |
| 2026-05-07 00:54 | 55.87718 | -4.42355 | 31 ft | 21 kts | 45° |
| 2026-05-07 00:54 | 55.87755 | -4.42212 | 25 ft | 6 kts | 119° |
| 2026-05-07 00:55 | 55.87721 | -4.42178 | 30 ft | 8 kts | 156° |
| 2026-05-07 00:55 | 55.87661 | -4.42155 | 28 ft | 9 kts | 179° |
| 2026-05-07 00:55 | 55.87610 | -4.42197 | 29 ft | 9 kts | 214° |
| 2026-05-07 00:55 | 55.87570 | -4.42254 | 29 ft | 14 kts | 221° |
| 2026-05-07 00:56 | 55.87481 | -4.42408 | 32 ft | 21 kts | 227° |
| 2026-05-07 00:56 | 55.87348 | -4.42603 | 30 ft | 28 kts | 206° |
| 2026-05-07 00:56 | 55.87159 | -4.42732 | 30 ft | 29 kts | 200° |
| 2026-05-07 00:56 | 55.86972 | -4.42872 | 33 ft | 29 kts | 204° |
| 2026-05-07 00:57 | 55.86840 | -4.43095 | 34 ft | 26 kts | 246° |
| 2026-05-07 00:57 | 55.86790 | -4.43397 | 33 ft | 26 kts | 250° |
| 2026-05-07 00:57 | 55.86661 | -4.43536 | 32 ft | 21 kts | 174° |
| 2026-05-07 00:57 | 55.86582 | -4.43643 | 31 ft | 11 kts | 249° |
| 2026-05-07 00:58 | 55.86578 | -4.43666 | 32 ft | 0 kts | 250° |